Coastal Carolina Regional Airport
KEWN : now visible

Airfield :











YOU CAN JOIN US ON...

 
LOGIN :

Register | Disclaimer

   EN    FR    IT 

 









Legend :    VFR   Marginal VFR   IFR   Intensive IFR   Very Intensive IFR
Visi :
Ceiling :
>= 8 km
>= 3000ft
5 to 8 km
1000 to 3000 ft
1500m to 5 km
500 to 1000 ft
800 to 1500m
200 to 500 ft
< 800m
< 200 ft
Symbols :   Thunderstorms  Fog  Heavy snow  Heavy precipitations  Wind > 20 kt






- Airport Elevation : 18 ft
- IATA code : EWN


KEWN - Coastal Carolina Regional

CURRENT METAR :
  • 041654Z 25010KT 10SM CLR 28/20 A2997 RMK AO2 SLP149 T02780200 $

EXPIRED METARs :
  • 041554Z 21006KT 10SM CLR 29/22 A2998 RMK AO2 SLP151 T02890222 $
  • 041454Z 24008KT 10SM CLR 27/22 A2998 RMK AO2 SLP152 T02720217 51021 $

TAF KEWN
Valid from the 04 at 12:00 until the 05 at 12:00 UTC


041121Z 0412/0512 23018G28KT P6SM BKN015
FM041500 25009G15KT P6SM SCT120
FM041700 24007KT P6SM SCT200
KZDC FIR / North America



MET'MAP, your aeronautical weather chart ! - Copyright ORBIFLY December 2007 - Disclaimer

ORBIFLY MET'MAP TEAM :

Programming & Development : Alexandra Zaïnal
Concept & original design : Baudouin d'Aumeries
Assistance for programming : Marc-Olivier Méhu
Technical & hardware support : Manuel Goepfert

Contact : metmap@orbifly.com




SOURCES & CREDITS :

   NOAA       Earth
Advisory